sensor_id;sensor_type;location;lat;lon;timestamp;pressure;altitude;pressure_sealevel;temperature;humidity
44531;BME280;30240;47.418;0.700;2023-03-03T00:01:13;100869.5556640625;;;2.51;79.9
44531;BME280;30240;47.418;0.700;2023-03-03T00:03:38;100874.8291015625;;;2.47;80.2
44531;BME280;30240;47.418;0.700;2023-03-03T00:06:04;100872.79663085938;;;2.42;80.34
44531;BME280;30240;47.418;0.700;2023-03-03T00:08:29;100872.79663085938;;;2.42;80.34
44531;BME280;30240;47.418;0.700;2023-03-03T00:10:54;100875.38452148438;;;2.4;80.28
44531;BME280;30240;47.418;0.700;2023-03-03T00:13:21;100876.84326171875;;;2.4;80.55
44531;BME280;30240;47.418;0.700;2023-03-03T00:15:44;100876.08642578125;;;2.39;80.77
44531;BME280;30240;47.418;0.700;2023-03-03T00:18:16;100871.9970703125;;;2.33;80.85
44531;BME280;30240;47.418;0.700;2023-03-03T00:20:35;100871.9970703125;;;2.33;80.85
44531;BME280;30240;47.418;0.700;2023-03-03T00:23:12;100872.23510742188;;;2.34;80.89
44531;BME280;30240;47.418;0.700;2023-03-03T00:25:28;100872.0947265625;;;2.37;80.97
44531;BME280;30240;47.418;0.700;2023-03-03T00:27:48;100874.8291015625;;;2.26;81.17
44531;BME280;30240;47.418;0.700;2023-03-03T00:30:19;100870.17822265625;;;2.3;81.23
44531;BME280;30240;47.418;0.700;2023-03-03T00:32:42;100870.02563476562;;;2.32;81.38
44531;BME280;30240;47.418;0.700;2023-03-03T00:35:22;100870.02563476562;;;2.32;81.38
44531;BME280;30240;47.418;0.700;2023-03-03T00:37:30;100867.01049804688;;;2.36;81.38
44531;BME280;30240;47.418;0.700;2023-03-03T00:39:58;100864.7216796875;;;2.4;81.3
44531;BME280;30240;47.418;0.700;2023-03-03T00:42:19;100864.84985351562;;;2.42;81.18
44531;BME280;30240;47.418;0.700;2023-03-03T00:44:44;100864.92919921875;;;2.47;81.36
44531;BME280;30240;47.418;0.700;2023-03-03T00:47:30;100864.92919921875;;;2.47;81.36
44531;BME280;30240;47.418;0.700;2023-03-03T00:49:34;100867.46826171875;;;2.51;81.36
44531;BME280;30240;47.418;0.700;2023-03-03T00:51:58;100868.408203125;;;2.56;81.43
44531;BME280;30240;47.418;0.700;2023-03-03T00:54:24;100878.466796875;;;2.75;81.25
44531;BME280;30240;47.418;0.700;2023-03-03T00:56:49;100869.3603515625;;;2.8;80.87
44531;BME280;30240;47.418;0.700;2023-03-03T00:59:13;100869.3603515625;;;2.8;80.87
44531;BME280;30240;47.418;0.700;2023-03-03T01:01:38;100870.9716796875;;;2.77;81.14
44531;BME280;30240;47.418;0.700;2023-03-03T01:04:03;100868.798828125;;;2.78;81.08
44531;BME280;30240;47.418;0.700;2023-03-03T01:06:28;100871.6064453125;;;2.71;81.2
44531;BME280;30240;47.418;0.700;2023-03-03T01:08:54;100868.78051757812;;;2.67;81.36
44531;BME280;30240;47.418;0.700;2023-03-03T01:11:22;100868.78051757812;;;2.67;81.36
44531;BME280;30240;47.418;0.700;2023-03-03T01:13:46;100875.98266601562;;;2.64;81.41
44531;BME280;30240;47.418;0.700;2023-03-03T01:16:09;100885.09521484375;;;2.65;81.54
44531;BME280;30240;47.418;0.700;2023-03-03T01:18:34;100878.46069335938;;;2.56;81.87
44531;BME280;30240;47.418;0.700;2023-03-03T01:20:59;100887.60986328125;;;2.43;82.37
44531;BME280;30240;47.418;0.700;2023-03-03T01:23:24;100887.60986328125;;;2.43;82.37
44531;BME280;30240;47.418;0.700;2023-03-03T01:25:48;100885.7666015625;;;2.53;82.17
44531;BME280;30240;47.418;0.700;2023-03-03T01:28:13;100885.77270507812;;;2.51;82.16
44531;BME280;30240;47.418;0.700;2023-03-03T01:30:39;100892.52319335938;;;2.57;82.29
44531;BME280;30240;47.418;0.700;2023-03-03T01:33:04;100890.1611328125;;;2.56;82.23
44531;BME280;30240;47.418;0.700;2023-03-03T01:35:29;100890.1611328125;;;2.56;82.23
44531;BME280;30240;47.418;0.700;2023-03-03T01:37:54;100892.626953125;;;2.53;82.55
44531;BME280;30240;47.418;0.700;2023-03-03T01:40:21;100897.15576171875;;;2.71;82.38
44531;BME280;30240;47.418;0.700;2023-03-03T01:42:44;100897.5341796875;;;2.6;82.14
44531;BME280;30240;47.418;0.700;2023-03-03T01:45:12;100893.59130859375;;;2.64;82.14
44531;BME280;30240;47.418;0.700;2023-03-03T01:47:33;100893.59130859375;;;2.64;82.14
44531;BME280;30240;47.418;0.700;2023-03-03T01:50:03;100892.90771484375;;;2.68;82.17
44531;BME280;30240;47.418;0.700;2023-03-03T01:52:26;100891.29638671875;;;2.89;81.83
44531;BME280;30240;47.418;0.700;2023-03-03T01:54:51;100889.31274414062;;;2.85;81.87
44531;BME280;30240;47.418;0.700;2023-03-03T01:57:19;100886.70043945312;;;2.8;82.31
44531;BME280;30240;47.418;0.700;2023-03-03T01:57:21;100886.70043945312;;;2.8;82.31
44531;BME280;30240;47.418;0.700;2023-03-03T01:59:41;100886.70043945312;;;2.8;82.31
44531;BME280;30240;47.418;0.700;2023-03-03T02:02:04;100888.42163085938;;;2.89;81.82
44531;BME280;30240;47.418;0.700;2023-03-03T02:04:29;100887.56103515625;;;2.85;82.17
44531;BME280;30240;47.418;0.700;2023-03-03T02:06:55;100887.21923828125;;;2.68;82.51
44531;BME280;30240;47.418;0.700;2023-03-03T02:09:22;100878.71704101562;;;2.53;82.96
44531;BME280;30240;47.418;0.700;2023-03-03T02:11:46;100881.60400390625;;;2.6;83.1
44531;BME280;30240;47.418;0.700;2023-03-03T02:14:09;100881.60400390625;;;2.6;83.1
44531;BME280;30240;47.418;0.700;2023-03-03T02:16:34;100880.15747070312;;;2.77;82.81
44531;BME280;30240;47.418;0.700;2023-03-03T02:18:58;100878.06396484375;;;2.84;82.65
44531;BME280;30240;47.418;0.700;2023-03-03T02:21:24;100878.1005859375;;;2.89;82.35
44531;BME280;30240;47.418;0.700;2023-03-03T02:23:52;100872.20458984375;;;2.93;82.13
44531;BME280;30240;47.418;0.700;2023-03-03T02:23:58;100872.20458984375;;;2.93;82.13
44531;BME280;30240;47.418;0.700;2023-03-03T02:26:15;100872.20458984375;;;2.93;82.13
44531;BME280;30240;47.418;0.700;2023-03-03T02:28:39;100874.25537109375;;;2.74;82.81
44531;BME280;30240;47.418;0.700;2023-03-03T02:31:06;100868.95141601562;;;2.74;82.98
44531;BME280;30240;47.418;0.700;2023-03-03T02:33:28;100863.87329101562;;;2.81;82.7
44531;BME280;30240;47.418;0.700;2023-03-03T02:35:54;100861.92016601562;;;2.77;82.87
44531;BME280;30240;47.418;0.700;2023-03-03T02:38:22;100861.92016601562;;;2.77;82.87
44531;BME280;30240;47.418;0.700;2023-03-03T02:40:48;100863.5009765625;;;2.8;83.0
44531;BME280;30240;47.418;0.700;2023-03-03T02:43:10;100859.85717773438;;;2.87;82.93
44531;BME280;30240;47.418;0.700;2023-03-03T02:45:33;100862.60375976562;;;2.93;82.71
44531;BME280;30240;47.418;0.700;2023-03-03T02:47:58;100860.60791015625;;;2.98;82.61
44531;BME280;30240;47.418;0.700;2023-03-03T02:50:23;100860.60791015625;;;2.98;82.61
44531;BME280;30240;47.418;0.700;2023-03-03T02:52:48;100860.8154296875;;;2.95;82.8
44531;BME280;30240;47.418;0.700;2023-03-03T02:55:13;100857.69653320312;;;2.91;82.89
44531;BME280;30240;47.418;0.700;2023-03-03T02:57:39;100861.21826171875;;;3.13;82.88
44531;BME280;30240;47.418;0.700;2023-03-03T03:00:04;100869.3115234375;;;3.23;82.29
44531;BME280;30240;47.418;0.700;2023-03-03T03:02:29;100869.3115234375;;;3.23;82.29
44531;BME280;30240;47.418;0.700;2023-03-03T03:04:54;100875.89111328125;;;3.34;82.02
44531;BME280;30240;47.418;0.700;2023-03-03T03:07:19;100875.2685546875;;;3.35;81.89
44531;BME280;30240;47.418;0.700;2023-03-03T03:09:43;100870.59936523438;;;3.24;81.86
44531;BME280;30240;47.418;0.700;2023-03-03T03:12:08;100871.45385742188;;;3.24;82.4
44531;BME280;30240;47.418;0.700;2023-03-03T03:14:34;100871.45385742188;;;3.24;82.4
44531;BME280;30240;47.418;0.700;2023-03-03T03:16:58;100866.95556640625;;;3.4;82.09
44531;BME280;30240;47.418;0.700;2023-03-03T03:19:24;100866.71752929688;;;3.35;81.98
44531;BME280;30240;47.418;0.700;2023-03-03T03:21:48;100857.421875;;;3.0;83.09
44531;BME280;30240;47.418;0.700;2023-03-03T03:24:14;100861.77978515625;;;3.23;82.83
44531;BME280;30240;47.418;0.700;2023-03-03T03:26:38;100861.77978515625;;;3.23;82.83
44531;BME280;30240;47.418;0.700;2023-03-03T03:29:03;100862.56103515625;;;3.37;82.45
44531;BME280;30240;47.418;0.700;2023-03-03T03:31:29;100856.10961914062;;;3.26;82.65
44531;BME280;30240;47.418;0.700;2023-03-03T03:33:53;100858.47778320312;;;3.3;82.89
44531;BME280;30240;47.418;0.700;2023-03-03T03:36:18;100866.29028320312;;;3.48;82.44
44531;BME280;30240;47.418;0.700;2023-03-03T03:38:44;100866.14990234375;;;3.35;82.48
44531;BME280;30240;47.418;0.700;2023-03-03T03:41:10;100866.14990234375;;;3.35;82.48
44531;BME280;30240;47.418;0.700;2023-03-03T03:43:34;100864.6728515625;;;3.22;83.33
44531;BME280;30240;47.418;0.700;2023-03-03T03:45:59;100865.76538085938;;;3.16;83.48
44531;BME280;30240;47.418;0.700;2023-03-03T03:48:24;100857.62329101562;;;3.17;83.47
44531;BME280;30240;47.418;0.700;2023-03-03T03:50:49;100858.23364257812;;;3.35;83.27
44531;BME280;30240;47.418;0.700;2023-03-03T03:53:14;100858.23364257812;;;3.35;83.27
44531;BME280;30240;47.418;0.700;2023-03-03T03:55:39;100860.13793945312;;;3.43;82.93
44531;BME280;30240;47.418;0.700;2023-03-03T03:58:04;100863.6962890625;;;3.54;82.76
44531;BME280;30240;47.418;0.700;2023-03-03T04:00:29;100866.064453125;;;3.59;82.53
44531;BME280;30240;47.418;0.700;2023-03-03T04:02:53;100864.8193359375;;;3.69;82.51
44531;BME280;30240;47.418;0.700;2023-03-03T04:05:18;100864.8193359375;;;3.69;82.51
44531;BME280;30240;47.418;0.700;2023-03-03T04:07:44;100870.00122070312;;;3.52;82.83
44531;BME280;30240;47.418;0.700;2023-03-03T04:10:09;100873.15063476562;;;3.65;82.63
44531;BME280;30240;47.418;0.700;2023-03-03T04:12:34;100871.22802734375;;;3.51;82.48
44531;BME280;30240;47.418;0.700;2023-03-03T04:14:58;100868.82934570312;;;3.34;83.21
44531;BME280;30240;47.418;0.700;2023-03-03T04:17:23;100868.82934570312;;;3.34;83.21
44531;BME280;30240;47.418;0.700;2023-03-03T04:19:51;100868.0419921875;;;3.4;83.41
44531;BME280;30240;47.418;0.700;2023-03-03T04:22:13;100868.34106445312;;;3.45;83.26
44531;BME280;30240;47.418;0.700;2023-03-03T04:24:39;100871.22802734375;;;3.61;82.73
44531;BME280;30240;47.418;0.700;2023-03-03T04:27:04;100869.37255859375;;;3.41;83.19
44531;BME280;30240;47.418;0.700;2023-03-03T04:29:29;100869.37255859375;;;3.41;83.19
44531;BME280;30240;47.418;0.700;2023-03-03T04:31:54;100868.07861328125;;;3.41;83.48
44531;BME280;30240;47.418;0.700;2023-03-03T04:34:18;100865.19775390625;;;3.45;83.31
44531;BME280;30240;47.418;0.700;2023-03-03T04:36:44;100861.865234375;;;3.57;83.01
44531;BME280;30240;47.418;0.700;2023-03-03T04:39:08;100861.62719726562;;;3.61;83.07
44531;BME280;30240;47.418;0.700;2023-03-03T04:41:33;100861.62719726562;;;3.61;83.07
44531;BME280;30240;47.418;0.700;2023-03-03T04:43:58;100859.04541015625;;;3.72;82.63
44531;BME280;30240;47.418;0.700;2023-03-03T04:46:23;100862.43896484375;;;3.76;82.65
44531;BME280;30240;47.418;0.700;2023-03-03T04:48:48;100862.5;;;3.82;82.37
44531;BME280;30240;47.418;0.700;2023-03-03T04:51:13;100854.296875;;;3.69;82.66
44531;BME280;30240;47.418;0.700;2023-03-03T04:53:39;100854.296875;;;3.69;82.66
44531;BME280;30240;47.418;0.700;2023-03-03T04:56:04;100857.39135742188;;;3.68;83.0
44531;BME280;30240;47.418;0.700;2023-03-03T04:58:29;100856.18896484375;;;3.83;82.53
44531;BME280;30240;47.418;0.700;2023-03-03T05:00:55;100857.177734375;;;3.69;82.89
44531;BME280;30240;47.418;0.700;2023-03-03T05:03:19;100860.8154296875;;;3.81;82.76
44531;BME280;30240;47.418;0.700;2023-03-03T05:05:45;100860.8154296875;;;3.81;82.76
44531;BME280;30240;47.418;0.700;2023-03-03T05:08:08;100857.62329101562;;;3.64;83.02
44531;BME280;30240;47.418;0.700;2023-03-03T05:10:34;100857.87353515625;;;3.68;83.26
44531;BME280;30240;47.418;0.700;2023-03-03T05:12:58;100853.10668945312;;;3.54;83.42
44531;BME280;30240;47.418;0.700;2023-03-03T05:15:23;100859.521484375;;;3.57;83.43
44531;BME280;30240;47.418;0.700;2023-03-03T05:17:48;100862.86010742188;;;3.62;83.34
44531;BME280;30240;47.418;0.700;2023-03-03T05:20:14;100862.86010742188;;;3.62;83.34
44531;BME280;30240;47.418;0.700;2023-03-03T05:22:38;100857.89184570312;;;3.65;83.44
44531;BME280;30240;47.418;0.700;2023-03-03T05:25:04;100860.12573242188;;;3.67;83.31
44531;BME280;30240;47.418;0.700;2023-03-03T05:27:28;100868.4814453125;;;3.68;83.32
44531;BME280;30240;47.418;0.700;2023-03-03T05:29:53;100866.015625;;;3.64;83.47
44531;BME280;30240;47.418;0.700;2023-03-03T05:32:18;100866.015625;;;3.64;83.47
44531;BME280;30240;47.418;0.700;2023-03-03T05:34:43;100862.00561523438;;;3.69;83.19
44531;BME280;30240;47.418;0.700;2023-03-03T05:37:09;100870.068359375;;;3.67;83.14
44531;BME280;30240;47.418;0.700;2023-03-03T05:39:34;100865.51513671875;;;3.72;82.99
44531;BME280;30240;47.418;0.700;2023-03-03T05:41:59;100869.67163085938;;;3.62;83.27
44531;BME280;30240;47.418;0.700;2023-03-03T05:44:23;100869.67163085938;;;3.62;83.27
44531;BME280;30240;47.418;0.700;2023-03-03T05:46:48;100869.43969726562;;;3.74;83.01
44531;BME280;30240;47.418;0.700;2023-03-03T05:49:13;100868.02978515625;;;3.67;83.16
44531;BME280;30240;47.418;0.700;2023-03-03T05:51:38;100873.07739257812;;;3.58;83.3
44531;BME280;30240;47.418;0.700;2023-03-03T05:54:04;100881.689453125;;;3.64;83.38
44531;BME280;30240;47.418;0.700;2023-03-03T05:56:28;100881.689453125;;;3.64;83.38
44531;BME280;30240;47.418;0.700;2023-03-03T05:58:54;100886.82861328125;;;3.52;83.54
44531;BME280;30240;47.418;0.700;2023-03-03T06:01:19;100885.107421875;;;3.51;83.69
44531;BME280;30240;47.418;0.700;2023-03-03T06:03:43;100881.45141601562;;;3.52;83.5
44531;BME280;30240;47.418;0.700;2023-03-03T06:06:08;100887.51831054688;;;3.52;83.73
44531;BME280;30240;47.418;0.700;2023-03-03T06:08:34;100887.51831054688;;;3.52;83.73
44531;BME280;30240;47.418;0.700;2023-03-03T06:10:59;100887.8173828125;;;3.41;83.97
44531;BME280;30240;47.418;0.700;2023-03-03T06:13:24;100888.671875;;;3.47;83.9
44531;BME280;30240;47.418;0.700;2023-03-03T06:15:48;100892.4560546875;;;3.5;83.83
44531;BME280;30240;47.418;0.700;2023-03-03T06:18:14;100897.79663085938;;;3.38;83.96
44531;BME280;30240;47.418;0.700;2023-03-03T06:20:38;100897.79663085938;;;3.38;83.96
44531;BME280;30240;47.418;0.700;2023-03-03T06:23:04;100900.244140625;;;3.44;83.88
44531;BME280;30240;47.418;0.700;2023-03-03T06:25:28;100904.87670898438;;;3.41;83.91
44531;BME280;30240;47.418;0.700;2023-03-03T06:27:53;100915.67993164062;;;3.45;83.88
44531;BME280;30240;47.418;0.700;2023-03-03T06:30:19;100913.70239257812;;;3.48;83.9
44531;BME280;30240;47.418;0.700;2023-03-03T06:32:44;100913.70239257812;;;3.48;83.9
44531;BME280;30240;47.418;0.700;2023-03-03T06:35:09;100912.94555664062;;;3.5;83.75
44531;BME280;30240;47.418;0.700;2023-03-03T06:37:34;100919.59228515625;;;3.64;83.74
44531;BME280;30240;47.418;0.700;2023-03-03T06:39:59;100927.23999023438;;;3.55;83.49
44531;BME280;30240;47.418;0.700;2023-03-03T06:42:23;100934.40551757812;;;3.54;83.85
44531;BME280;30240;47.418;0.700;2023-03-03T06:44:49;100938.28125;;;3.58;83.59
44531;BME280;30240;47.418;0.700;2023-03-03T06:47:14;100938.28125;;;3.58;83.59
44531;BME280;30240;47.418;0.700;2023-03-03T06:49:39;100946.3134765625;;;3.58;83.75
44531;BME280;30240;47.418;0.700;2023-03-03T06:52:11;100945.20263671875;;;3.58;83.7
44531;BME280;30240;47.418;0.700;2023-03-03T06:54:29;100958.06884765625;;;3.45;83.79
44531;BME280;30240;47.418;0.700;2023-03-03T06:56:57;100948.291015625;;;3.47;84.01
44531;BME280;30240;47.418;0.700;2023-03-03T06:59:20;100948.291015625;;;3.47;84.01
44531;BME280;30240;47.418;0.700;2023-03-03T07:01:45;100951.50756835938;;;3.48;83.83
44531;BME280;30240;47.418;0.700;2023-03-03T07:04:13;100956.65893554688;;;3.5;83.75
44531;BME280;30240;47.418;0.700;2023-03-03T07:06:34;100962.451171875;;;3.58;83.57
44531;BME280;30240;47.418;0.700;2023-03-03T07:08:59;100973.24829101562;;;3.45;83.79
44531;BME280;30240;47.418;0.700;2023-03-03T07:11:24;100973.24829101562;;;3.45;83.79
44531;BME280;30240;47.418;0.700;2023-03-03T07:13:50;100974.609375;;;3.55;83.55
44531;BME280;30240;47.418;0.700;2023-03-03T07:16:15;100979.638671875;;;3.52;83.66
44531;BME280;30240;47.418;0.700;2023-03-03T07:18:44;100985.84594726562;;;3.47;83.72
44531;BME280;30240;47.418;0.700;2023-03-03T07:21:11;100989.34326171875;;;3.48;83.77
44531;BME280;30240;47.418;0.700;2023-03-03T07:23:34;100989.34326171875;;;3.48;83.77
44531;BME280;30240;47.418;0.700;2023-03-03T07:25:54;100999.82299804688;;;3.54;83.84
44531;BME280;30240;47.418;0.700;2023-03-03T07:28:21;100999.71923828125;;;3.58;83.68
44531;BME280;30240;47.418;0.700;2023-03-03T07:30:44;100995.15380859375;;;3.52;83.76
44531;BME280;30240;47.418;0.700;2023-03-03T07:33:19;100994.72045898438;;;3.64;83.51
44531;BME280;30240;47.418;0.700;2023-03-03T07:35:36;100994.72045898438;;;3.64;83.51
44531;BME280;30240;47.418;0.700;2023-03-03T07:37:59;101002.36206054688;;;3.71;83.62
44531;BME280;30240;47.418;0.700;2023-03-03T07:40:30;100999.71923828125;;;3.79;83.35
44531;BME280;30240;47.418;0.700;2023-03-03T07:42:49;101005.04760742188;;;3.74;83.56
44531;BME280;30240;47.418;0.700;2023-03-03T07:45:24;101004.01611328125;;;3.61;83.56
44531;BME280;30240;47.418;0.700;2023-03-03T07:47:39;101004.01611328125;;;3.61;83.56
44531;BME280;30240;47.418;0.700;2023-03-03T07:50:14;101010.68725585938;;;3.62;83.57
44531;BME280;30240;47.418;0.700;2023-03-03T07:52:39;101008.75244140625;;;3.65;83.27
44531;BME280;30240;47.418;0.700;2023-03-03T07:54:55;101012.60986328125;;;3.4;83.76
44531;BME280;30240;47.418;0.700;2023-03-03T07:57:21;101019.39086914062;;;3.59;83.7
44531;BME280;30240;47.418;0.700;2023-03-03T07:59:46;101019.39086914062;;;3.59;83.7
44531;BME280;30240;47.418;0.700;2023-03-03T08:02:32;101023.54736328125;;;3.62;83.54
44531;BME280;30240;47.418;0.700;2023-03-03T08:04:38;101021.93603515625;;;3.67;83.42
44531;BME280;30240;47.418;0.700;2023-03-03T08:06:59;101024.44458007812;;;3.69;83.37
44531;BME280;30240;47.418;0.700;2023-03-03T08:09:29;101024.18823242188;;;3.86;82.8
44531;BME280;30240;47.418;0.700;2023-03-03T08:11:52;101024.18823242188;;;3.86;82.8
44531;BME280;30240;47.418;0.700;2023-03-03T08:14:15;101024.84130859375;;;4.03;82.52
44531;BME280;30240;47.418;0.700;2023-03-03T08:16:39;101026.123046875;;;4.06;82.22
44531;BME280;30240;47.418;0.700;2023-03-03T08:19:05;101025.5126953125;;;4.17;82.41
44531;BME280;30240;47.418;0.700;2023-03-03T08:21:29;101019.95239257812;;;4.44;81.36
44531;BME280;30240;47.418;0.700;2023-03-03T08:23:53;101020.654296875;;;4.33;81.33
44531;BME280;30240;47.418;0.700;2023-03-03T08:26:20;101020.654296875;;;4.33;81.33
44531;BME280;30240;47.418;0.700;2023-03-03T08:28:44;101019.67163085938;;;4.4;81.15
44531;BME280;30240;47.418;0.700;2023-03-03T08:31:09;101014.43481445312;;;4.56;80.21
44531;BME280;30240;47.418;0.700;2023-03-03T08:33:33;101021.0205078125;;;5.5;77.46
44531;BME280;30240;47.418;0.700;2023-03-03T08:35:58;101019.04907226562;;;6.15;75.79
44531;BME280;30240;47.418;0.700;2023-03-03T08:38:24;101019.04907226562;;;6.15;75.79
44531;BME280;30240;47.418;0.700;2023-03-03T08:40:49;101010.43701171875;;;5.88;75.98
44531;BME280;30240;47.418;0.700;2023-03-03T08:43:14;101017.529296875;;;5.97;75.23
44531;BME280;30240;47.418;0.700;2023-03-03T08:45:39;101015.966796875;;;6.84;73.36
44531;BME280;30240;47.418;0.700;2023-03-03T08:48:04;101015.15502929688;;;6.78;72.7
44531;BME280;30240;47.418;0.700;2023-03-03T08:50:29;101015.15502929688;;;6.78;72.7
44531;BME280;30240;47.418;0.700;2023-03-03T08:52:54;101010.09521484375;;;6.43;73.09
44531;BME280;30240;47.418;0.700;2023-03-03T08:55:19;101009.51538085938;;;6.65;72.19
44531;BME280;30240;47.418;0.700;2023-03-03T08:57:44;101010.56518554688;;;6.64;73.04
44531;BME280;30240;47.418;0.700;2023-03-03T09:00:11;101014.42260742188;;;7.64;70.33
44531;BME280;30240;47.418;0.700;2023-03-03T09:02:33;101014.42260742188;;;7.64;70.33
44531;BME280;30240;47.418;0.700;2023-03-03T09:04:58;101018.67065429688;;;6.97;70.83
44531;BME280;30240;47.418;0.700;2023-03-03T09:07:24;101017.83447265625;;;7.82;68.36
44531;BME280;30240;47.418;0.700;2023-03-03T09:09:49;101018.54858398438;;;7.27;71.48
44531;BME280;30240;47.418;0.700;2023-03-03T09:12:16;101017.29125976562;;;7.44;69.97
44531;BME280;30240;47.418;0.700;2023-03-03T09:14:39;101017.29125976562;;;7.44;69.97
44531;BME280;30240;47.418;0.700;2023-03-03T09:17:24;101016.357421875;;;7.83;68.76
44531;BME280;30240;47.418;0.700;2023-03-03T09:19:30;101010.73608398438;;;7.87;68.49
44531;BME280;30240;47.418;0.700;2023-03-03T09:21:55;101011.0107421875;;;8.5;66.8
44531;BME280;30240;47.418;0.700;2023-03-03T09:24:23;101011.96899414062;;;8.14;67.71
44531;BME280;30240;47.418;0.700;2023-03-03T09:26:45;101011.96899414062;;;8.14;67.71
44531;BME280;30240;47.418;0.700;2023-03-03T09:29:18;101010.90698242188;;;8.63;66.77
44531;BME280;30240;47.418;0.700;2023-03-03T09:31:38;101010.2294921875;;;9.19;65.53
44531;BME280;30240;47.418;0.700;2023-03-03T09:33:59;101014.34326171875;;;8.57;66.59
44531;BME280;30240;47.418;0.700;2023-03-03T09:36:26;101021.03271484375;;;8.59;66.9
44531;BME280;30240;47.418;0.700;2023-03-03T09:38:49;101021.03271484375;;;8.59;66.9
44531;BME280;30240;47.418;0.700;2023-03-03T09:42:10;101022.84545898438;;;8.5;66.25
44531;BME280;30240;47.418;0.700;2023-03-03T09:43:43;101027.67944335938;;;8.63;66.78
44531;BME280;30240;47.418;0.700;2023-03-03T09:46:07;101024.658203125;;;8.76;65.13
44531;BME280;30240;47.418;0.700;2023-03-03T09:48:39;101027.5146484375;;;9.53;64.15
44531;BME280;30240;47.418;0.700;2023-03-03T09:51:01;101028.39965820312;;;9.21;65.13
44531;BME280;30240;47.418;0.700;2023-03-03T09:51:16;101028.39965820312;;;9.21;65.13
44531;BME280;30240;47.418;0.700;2023-03-03T09:53:34;101028.39965820312;;;9.21;65.13
44531;BME280;30240;47.418;0.700;2023-03-03T09:53:42;101028.39965820312;;;9.21;65.13
44531;BME280;30240;47.418;0.700;2023-03-03T09:53:50;101028.39965820312;;;9.21;65.13
44531;BME280;30240;47.418;0.700;2023-03-03T09:55:47;101030.9814453125;;;10.1;62.36
44531;BME280;30240;47.418;0.700;2023-03-03T09:58:18;101029.4921875;;;10.29;61.35
44531;BME280;30240;47.418;0.700;2023-03-03T10:00:39;101029.52270507812;;;8.35;65.4
44531;BME280;30240;47.418;0.700;2023-03-03T10:03:30;101030.92041015625;;;10.46;61.2
44531;BME280;30240;47.418;0.700;2023-03-03T10:03:41;101030.92041015625;;;10.46;61.2
44531;BME280;30240;47.418;0.700;2023-03-03T10:05:28;101030.92041015625;;;10.46;61.2
44531;BME280;30240;47.418;0.700;2023-03-03T10:07:54;101024.92065429688;;;10.69;60.0
44531;BME280;30240;47.418;0.700;2023-03-03T10:10:18;101028.8330078125;;;10.89;59.38
44531;BME280;30240;47.418;0.700;2023-03-03T10:12:47;101032.51342773438;;;10.86;60.73
44531;BME280;30240;47.418;0.700;2023-03-03T10:15:14;101036.43188476562;;;11.31;58.71
44531;BME280;30240;47.418;0.700;2023-03-03T10:17:36;101036.43188476562;;;11.31;58.71
44531;BME280;30240;47.418;0.700;2023-03-03T10:17:44;101036.43188476562;;;11.31;58.71
44531;BME280;30240;47.418;0.700;2023-03-03T10:20:01;101034.35668945312;;;10.08;60.64
44531;BME280;30240;47.418;0.700;2023-03-03T10:22:20;101039.44702148438;;;10.19;61.79
44531;BME280;30240;47.418;0.700;2023-03-03T10:24:48;101038.7939453125;;;10.63;59.92
44531;BME280;30240;47.418;0.700;2023-03-03T10:27:16;101042.49267578125;;;10.85;60.45
44531;BME280;30240;47.418;0.700;2023-03-03T10:27:24;101042.49267578125;;;10.85;60.45
44531;BME280;30240;47.418;0.700;2023-03-03T10:29:38;101042.49267578125;;;10.85;60.45
44531;BME280;30240;47.418;0.700;2023-03-03T10:32:08;101042.85278320312;;;10.02;60.89
44531;BME280;30240;47.418;0.700;2023-03-03T10:32:25;101042.85278320312;;;10.02;60.89
44531;BME280;30240;47.418;0.700;2023-03-03T10:34:34;101048.62670898438;;;10.51;60.49
44531;BME280;30240;47.418;0.700;2023-03-03T10:34:44;101048.62670898438;;;10.51;60.49
44531;BME280;30240;47.418;0.700;2023-03-03T10:34:49;101048.62670898438;;;10.51;60.49
44531;BME280;30240;47.418;0.700;2023-03-03T10:36:54;101053.173828125;;;10.58;61.3
44531;BME280;30240;47.418;0.700;2023-03-03T10:39:22;101051.513671875;;;10.92;60.73
44531;BME280;30240;47.418;0.700;2023-03-03T10:39:39;101051.513671875;;;10.92;60.73
44531;BME280;30240;47.418;0.700;2023-03-03T10:39:47;101051.513671875;;;10.92;60.73
44531;BME280;30240;47.418;0.700;2023-03-03T10:41:46;101051.513671875;;;10.92;60.73
44531;BME280;30240;47.418;0.700;2023-03-03T10:44:22;101051.09252929688;;;11.65;58.1
44531;BME280;30240;47.418;0.700;2023-03-03T10:46:36;101050.72021484375;;;10.72;59.89
44531;BME280;30240;47.418;0.700;2023-03-03T10:49:01;101046.337890625;;;12.13;56.72
44531;BME280;30240;47.418;0.700;2023-03-03T10:49:10;101046.337890625;;;12.13;56.72
44531;BME280;30240;47.418;0.700;2023-03-03T10:51:25;101041.48559570312;;;11.3;59.48
44531;BME280;30240;47.418;0.700;2023-03-03T10:54:02;101041.48559570312;;;11.3;59.48
44531;BME280;30240;47.418;0.700;2023-03-03T10:54:11;101041.48559570312;;;11.3;59.48